sensor_id;sensor_type;location;lat;lon;timestamp;pressure;altitude;pressure_sealevel;temperature
15680;BMP180;15488;48.114;11.532;2023-03-01T00:01:02;95832.00;;;10.90
15680;BMP180;15488;48.114;11.532;2023-03-01T00:03:29;95829.00;;;10.90
15680;BMP180;15488;48.114;11.532;2023-03-01T00:05:59;95829.00;;;10.90
15680;BMP180;15488;48.114;11.532;2023-03-01T00:08:27;95825.00;;;10.80
15680;BMP180;15488;48.114;11.532;2023-03-01T00:11:03;95822.00;;;10.80
15680;BMP180;15488;48.114;11.532;2023-03-01T00:13:31;95830.00;;;10.80
15680;BMP180;15488;48.114;11.532;2023-03-01T00:16:01;95820.00;;;10.80
15680;BMP180;15488;48.114;11.532;2023-03-01T00:18:29;95817.00;;;10.80
15680;BMP180;15488;48.114;11.532;2023-03-01T00:20:58;95823.00;;;10.70
15680;BMP180;15488;48.114;11.532;2023-03-01T00:23:26;95817.00;;;10.80
15680;BMP180;15488;48.114;11.532;2023-03-01T00:25:53;95823.00;;;10.80
15680;BMP180;15488;48.114;11.532;2023-03-01T00:28:21;95823.00;;;10.70
15680;BMP180;15488;48.114;11.532;2023-03-01T00:30:49;95818.00;;;10.80
15680;BMP180;15488;48.114;11.532;2023-03-01T00:33:16;95814.00;;;10.80
15680;BMP180;15488;48.114;11.532;2023-03-01T00:35:44;95821.00;;;10.80
15680;BMP180;15488;48.114;11.532;2023-03-01T00:38:13;95811.00;;;10.80
15680;BMP180;15488;48.114;11.532;2023-03-01T00:40:40;95810.00;;;10.80
15680;BMP180;15488;48.114;11.532;2023-03-01T00:43:08;95806.00;;;10.80
15680;BMP180;15488;48.114;11.532;2023-03-01T00:45:36;95810.00;;;10.80
15680;BMP180;15488;48.114;11.532;2023-03-01T00:48:04;95806.00;;;10.80
15680;BMP180;15488;48.114;11.532;2023-03-01T00:50:31;95801.00;;;10.80
15680;BMP180;15488;48.114;11.532;2023-03-01T00:52:59;95808.00;;;10.70
15680;BMP180;15488;48.114;11.532;2023-03-01T00:55:27;95798.00;;;10.70
15680;BMP180;15488;48.114;11.532;2023-03-01T00:57:55;95799.00;;;10.80
15680;BMP180;15488;48.114;11.532;2023-03-01T01:00:22;95797.00;;;10.70
15680;BMP180;15488;48.114;11.532;2023-03-01T01:02:50;95792.00;;;10.70
15680;BMP180;15488;48.114;11.532;2023-03-01T01:05:17;95791.00;;;10.60
15680;BMP180;15488;48.114;11.532;2023-03-01T01:07:47;95789.00;;;10.70
15680;BMP180;15488;48.114;11.532;2023-03-01T01:10:15;95787.00;;;10.60
15680;BMP180;15488;48.114;11.532;2023-03-01T01:12:45;95784.00;;;10.60
15680;BMP180;15488;48.114;11.532;2023-03-01T01:15:13;95775.00;;;10.60
15680;BMP180;15488;48.114;11.532;2023-03-01T01:17:42;95779.00;;;10.60
15680;BMP180;15488;48.114;11.532;2023-03-01T01:20:11;95771.00;;;10.60
15680;BMP180;15488;48.114;11.532;2023-03-01T01:22:39;95770.00;;;10.70
15680;BMP180;15488;48.114;11.532;2023-03-01T01:25:07;95766.00;;;10.70
15680;BMP180;15488;48.114;11.532;2023-03-01T01:27:35;95763.00;;;10.60
15680;BMP180;15488;48.114;11.532;2023-03-01T01:30:05;95764.00;;;10.50
15680;BMP180;15488;48.114;11.532;2023-03-01T01:32:32;95759.00;;;10.50
15680;BMP180;15488;48.114;11.532;2023-03-01T01:35:00;95756.00;;;10.50
15680;BMP180;15488;48.114;11.532;2023-03-01T01:37:27;95757.00;;;10.50
15680;BMP180;15488;48.114;11.532;2023-03-01T01:39:57;95752.00;;;10.60
15680;BMP180;15488;48.114;11.532;2023-03-01T01:42:25;95749.00;;;10.60
15680;BMP180;15488;48.114;11.532;2023-03-01T01:48:03;95754.00;;;10.50
15680;BMP180;15488;48.114;11.532;2023-03-01T01:50:32;95734.00;;;10.60
15680;BMP180;15488;48.114;11.532;2023-03-01T01:53:06;95738.00;;;10.50
15680;BMP180;15488;48.114;11.532;2023-03-01T01:55:34;95738.00;;;10.50
15680;BMP180;15488;48.114;11.532;2023-03-01T01:58:05;95736.00;;;10.50
15680;BMP180;15488;48.114;11.532;2023-03-01T02:00:34;95743.00;;;10.50
15680;BMP180;15488;48.114;11.532;2023-03-01T02:03:06;95730.00;;;10.50
15680;BMP180;15488;48.114;11.532;2023-03-01T02:05:40;95726.00;;;10.50
15680;BMP180;15488;48.114;11.532;2023-03-01T02:08:12;95728.00;;;10.50
15680;BMP180;15488;48.114;11.532;2023-03-01T02:10:41;95725.00;;;10.60
15680;BMP180;15488;48.114;11.532;2023-03-01T02:13:09;95730.00;;;10.50
15680;BMP180;15488;48.114;11.532;2023-03-01T02:15:39;95729.00;;;10.50
15680;BMP180;15488;48.114;11.532;2023-03-01T02:18:10;95729.00;;;10.50
15680;BMP180;15488;48.114;11.532;2023-03-01T02:20:46;95726.00;;;10.50
15680;BMP180;15488;48.114;11.532;2023-03-01T02:23:16;95722.00;;;10.50
15680;BMP180;15488;48.114;11.532;2023-03-01T02:25:49;95721.00;;;10.50
15680;BMP180;15488;48.114;11.532;2023-03-01T02:28:26;95714.00;;;10.50
15680;BMP180;15488;48.114;11.532;2023-03-01T02:30:54;95711.00;;;10.50
15680;BMP180;15488;48.114;11.532;2023-03-01T02:33:39;95719.00;;;10.40
15680;BMP180;15488;48.114;11.532;2023-03-01T02:36:10;95717.00;;;10.40
15680;BMP180;15488;48.114;11.532;2023-03-01T02:38:39;95721.00;;;10.40
15680;BMP180;15488;48.114;11.532;2023-03-01T02:41:08;95719.00;;;10.40
15680;BMP180;15488;48.114;11.532;2023-03-01T02:43:38;95707.00;;;10.40
15680;BMP180;15488;48.114;11.532;2023-03-01T02:46:08;95736.00;;;10.40
15680;BMP180;15488;48.114;11.532;2023-03-01T02:48:43;95708.00;;;10.40
15680;BMP180;15488;48.114;11.532;2023-03-01T02:51:19;95704.00;;;10.40
15680;BMP180;15488;48.114;11.532;2023-03-01T02:53:54;95711.00;;;10.40
15680;BMP180;15488;48.114;11.532;2023-03-01T02:56:22;95716.00;;;10.40
15680;BMP180;15488;48.114;11.532;2023-03-01T02:58:51;95706.00;;;10.40
15680;BMP180;15488;48.114;11.532;2023-03-01T03:01:18;95706.00;;;10.40
15680;BMP180;15488;48.114;11.532;2023-03-01T03:03:46;95703.00;;;10.40
15680;BMP180;15488;48.114;11.532;2023-03-01T03:06:14;95701.00;;;10.40
15680;BMP180;15488;48.114;11.532;2023-03-01T03:08:41;95704.00;;;10.40
15680;BMP180;15488;48.114;11.532;2023-03-01T03:11:09;95703.00;;;10.40
15680;BMP180;15488;48.114;11.532;2023-03-01T03:13:37;95523.00;;;10.30
15680;BMP180;15488;48.114;11.532;2023-03-01T03:16:15;95710.00;;;10.30
15680;BMP180;15488;48.114;11.532;2023-03-01T03:18:42;95709.00;;;10.30
15680;BMP180;15488;48.114;11.532;2023-03-01T03:21:10;95705.00;;;10.30
15680;BMP180;15488;48.114;11.532;2023-03-01T03:23:38;95704.00;;;10.30
15680;BMP180;15488;48.114;11.532;2023-03-01T03:26:06;95708.00;;;10.30
15680;BMP180;15488;48.114;11.532;2023-03-01T03:28:35;95704.00;;;10.30
15680;BMP180;15488;48.114;11.532;2023-03-01T03:31:06;95698.00;;;10.30
15680;BMP180;15488;48.114;11.532;2023-03-01T03:33:35;95700.00;;;10.30
15680;BMP180;15488;48.114;11.532;2023-03-01T03:36:03;95700.00;;;10.30
15680;BMP180;15488;48.114;11.532;2023-03-01T03:38:31;95702.00;;;10.30
15680;BMP180;15488;48.114;11.532;2023-03-01T03:41:04;95691.00;;;10.30
15680;BMP180;15488;48.114;11.532;2023-03-01T03:43:36;95692.00;;;10.30
15680;BMP180;15488;48.114;11.532;2023-03-01T03:46:04;95698.00;;;10.30
15680;BMP180;15488;48.114;11.532;2023-03-01T03:48:32;95692.00;;;10.30
15680;BMP180;15488;48.114;11.532;2023-03-01T03:51:02;95691.00;;;10.30
15680;BMP180;15488;48.114;11.532;2023-03-01T03:53:31;95684.00;;;10.30
15680;BMP180;15488;48.114;11.532;2023-03-01T03:55:58;95691.00;;;10.30
15680;BMP180;15488;48.114;11.532;2023-03-01T03:58:27;95679.00;;;10.30
15680;BMP180;15488;48.114;11.532;2023-03-01T04:00:56;95678.00;;;10.20
15680;BMP180;15488;48.114;11.532;2023-03-01T04:03:25;95677.00;;;10.20
15680;BMP180;15488;48.114;11.532;2023-03-01T04:05:53;95672.00;;;10.20
15680;BMP180;15488;48.114;11.532;2023-03-01T04:08:23;95672.00;;;10.20
15680;BMP180;15488;48.114;11.532;2023-03-01T04:10:51;95665.00;;;10.20
15680;BMP180;15488;48.114;11.532;2023-03-01T04:13:21;95670.00;;;10.20
15680;BMP180;15488;48.114;11.532;2023-03-01T04:15:49;95674.00;;;10.20
15680;BMP180;15488;48.114;11.532;2023-03-01T04:18:18;95673.00;;;10.20
15680;BMP180;15488;48.114;11.532;2023-03-01T04:20:46;95671.00;;;10.20
15680;BMP180;15488;48.114;11.532;2023-03-01T04:23:15;95664.00;;;10.20
15680;BMP180;15488;48.114;11.532;2023-03-01T04:25:48;95678.00;;;10.10
15680;BMP180;15488;48.114;11.532;2023-03-01T04:28:20;95675.00;;;10.20
15680;BMP180;15488;48.114;11.532;2023-03-01T04:30:47;95672.00;;;10.20
15680;BMP180;15488;48.114;11.532;2023-03-01T04:33:15;95660.00;;;10.10
15680;BMP180;15488;48.114;11.532;2023-03-01T04:35:42;95666.00;;;10.10
15680;BMP180;15488;48.114;11.532;2023-03-01T04:38:10;95661.00;;;10.10
15680;BMP180;15488;48.114;11.532;2023-03-01T04:40:38;95659.00;;;10.10
15680;BMP180;15488;48.114;11.532;2023-03-01T04:43:10;95665.00;;;10.10
15680;BMP180;15488;48.114;11.532;2023-03-01T04:45:38;95662.00;;;10.10
15680;BMP180;15488;48.114;11.532;2023-03-01T04:48:06;95659.00;;;10.10
15680;BMP180;15488;48.114;11.532;2023-03-01T04:50:33;95662.00;;;10.10
15680;BMP180;15488;48.114;11.532;2023-03-01T04:53:02;95655.00;;;10.00
15680;BMP180;15488;48.114;11.532;2023-03-01T04:55:29;95657.00;;;10.10
15680;BMP180;15488;48.114;11.532;2023-03-01T04:57:57;95660.00;;;10.00
15680;BMP180;15488;48.114;11.532;2023-03-01T05:00:26;95659.00;;;10.00
15680;BMP180;15488;48.114;11.532;2023-03-01T05:02:55;95653.00;;;10.00
15680;BMP180;15488;48.114;11.532;2023-03-01T05:05:25;95651.00;;;10.00
15680;BMP180;15488;48.114;11.532;2023-03-01T05:07:57;95649.00;;;9.90
15680;BMP180;15488;48.114;11.532;2023-03-01T05:10:26;95651.00;;;10.00
15680;BMP180;15488;48.114;11.532;2023-03-01T05:12:56;95648.00;;;10.00
15680;BMP180;15488;48.114;11.532;2023-03-01T05:15:26;95647.00;;;9.90
15680;BMP180;15488;48.114;11.532;2023-03-01T05:17:54;95649.00;;;9.90
15680;BMP180;15488;48.114;11.532;2023-03-01T05:20:24;95646.00;;;9.90
15680;BMP180;15488;48.114;11.532;2023-03-01T05:22:54;95636.00;;;9.90
15680;BMP180;15488;48.114;11.532;2023-03-01T05:25:22;95647.00;;;9.90
15680;BMP180;15488;48.114;11.532;2023-03-01T05:27:50;95637.00;;;9.90
15680;BMP180;15488;48.114;11.532;2023-03-01T05:30:18;95636.00;;;9.90
15680;BMP180;15488;48.114;11.532;2023-03-01T05:32:48;95643.00;;;9.90
15680;BMP180;15488;48.114;11.532;2023-03-01T05:35:17;95650.00;;;9.80
15680;BMP180;15488;48.114;11.532;2023-03-01T05:37:46;95647.00;;;9.80
15680;BMP180;15488;48.114;11.532;2023-03-01T05:40:15;95638.00;;;9.80
15680;BMP180;15488;48.114;11.532;2023-03-01T05:42:44;95647.00;;;9.80
15680;BMP180;15488;48.114;11.532;2023-03-01T05:45:12;95643.00;;;9.80
15680;BMP180;15488;48.114;11.532;2023-03-01T05:47:40;95636.00;;;9.80
15680;BMP180;15488;48.114;11.532;2023-03-01T05:50:14;95629.00;;;9.80
15680;BMP180;15488;48.114;11.532;2023-03-01T05:52:45;95640.00;;;9.80
15680;BMP180;15488;48.114;11.532;2023-03-01T05:55:14;95641.00;;;9.80
15680;BMP180;15488;48.114;11.532;2023-03-01T05:57:42;95636.00;;;8.50
15680;BMP180;15488;48.114;11.532;2023-03-01T06:00:10;95633.00;;;9.70
15680;BMP180;15488;48.114;11.532;2023-03-01T06:02:38;95639.00;;;9.70
15680;BMP180;15488;48.114;11.532;2023-03-01T06:05:08;95640.00;;;9.70
15680;BMP180;15488;48.114;11.532;2023-03-01T06:07:37;95638.00;;;9.70
15680;BMP180;15488;48.114;11.532;2023-03-01T06:10:06;95649.00;;;9.70
15680;BMP180;15488;48.114;11.532;2023-03-01T06:12:34;95652.00;;;9.70
15680;BMP180;15488;48.114;11.532;2023-03-01T06:15:04;95655.00;;;9.70
15680;BMP180;15488;48.114;11.532;2023-03-01T06:17:32;95660.00;;;9.80
15680;BMP180;15488;48.114;11.532;2023-03-01T06:20:04;95663.00;;;9.80
15680;BMP180;15488;48.114;11.532;2023-03-01T06:22:32;95652.00;;;9.80
15680;BMP180;15488;48.114;11.532;2023-03-01T06:25:00;95653.00;;;9.80
15680;BMP180;15488;48.114;11.532;2023-03-01T06:27:28;95653.00;;;9.80
15680;BMP180;15488;48.114;11.532;2023-03-01T06:29:55;95653.00;;;9.80
15680;BMP180;15488;48.114;11.532;2023-03-01T06:32:23;95655.00;;;9.80
15680;BMP180;15488;48.114;11.532;2023-03-01T06:34:50;95663.00;;;9.80
15680;BMP180;15488;48.114;11.532;2023-03-01T06:37:18;95650.00;;;9.80
15680;BMP180;15488;48.114;11.532;2023-03-01T06:39:45;95656.00;;;9.80
15680;BMP180;15488;48.114;11.532;2023-03-01T06:42:15;95663.00;;;9.70
15680;BMP180;15488;48.114;11.532;2023-03-01T06:44:43;95661.00;;;9.80
15680;BMP180;15488;48.114;11.532;2023-03-01T06:47:12;95656.00;;;9.70
15680;BMP180;15488;48.114;11.532;2023-03-01T06:49:39;95658.00;;;9.70
15680;BMP180;15488;48.114;11.532;2023-03-01T06:52:07;95664.00;;;9.70
15680;BMP180;15488;48.114;11.532;2023-03-01T06:54:34;95657.00;;;9.70
15680;BMP180;15488;48.114;11.532;2023-03-01T06:57:01;95650.00;;;9.70
15680;BMP180;15488;48.114;11.532;2023-03-01T06:59:30;95652.00;;;9.70
15680;BMP180;15488;48.114;11.532;2023-03-01T07:01:58;95653.00;;;9.80
15680;BMP180;15488;48.114;11.532;2023-03-01T07:04:25;95654.00;;;9.80
15680;BMP180;15488;48.114;11.532;2023-03-01T07:06:54;95668.00;;;9.80
15680;BMP180;15488;48.114;11.532;2023-03-01T07:09:22;95659.00;;;9.80
15680;BMP180;15488;48.114;11.532;2023-03-01T07:11:49;95659.00;;;9.80
15680;BMP180;15488;48.114;11.532;2023-03-01T07:14:17;95656.00;;;9.80
15680;BMP180;15488;48.114;11.532;2023-03-01T07:16:47;95658.00;;;9.80
15680;BMP180;15488;48.114;11.532;2023-03-01T07:19:14;95649.00;;;9.80
15680;BMP180;15488;48.114;11.532;2023-03-01T07:21:42;95646.00;;;9.80
15680;BMP180;15488;48.114;11.532;2023-03-01T07:24:09;95640.00;;;9.80
15680;BMP180;15488;48.114;11.532;2023-03-01T07:26:37;95644.00;;;9.80
15680;BMP180;15488;48.114;11.532;2023-03-01T07:29:05;95649.00;;;9.80
15680;BMP180;15488;48.114;11.532;2023-03-01T07:31:34;95641.00;;;9.80
15680;BMP180;15488;48.114;11.532;2023-03-01T07:34:03;95649.00;;;9.80
15680;BMP180;15488;48.114;11.532;2023-03-01T07:36:30;95647.00;;;9.80
15680;BMP180;15488;48.114;11.532;2023-03-01T07:38:58;95635.00;;;9.80
15680;BMP180;15488;48.114;11.532;2023-03-01T07:41:28;95630.00;;;9.90
15680;BMP180;15488;48.114;11.532;2023-03-01T07:43:55;95633.00;;;9.90
15680;BMP180;15488;48.114;11.532;2023-03-01T07:46:23;95638.00;;;9.90
15680;BMP180;15488;48.114;11.532;2023-03-01T07:48:50;95634.00;;;9.90
15680;BMP180;15488;48.114;11.532;2023-03-01T07:51:19;95636.00;;;9.90
15680;BMP180;15488;48.114;11.532;2023-03-01T07:53:47;95629.00;;;9.90
15680;BMP180;15488;48.114;11.532;2023-03-01T07:56:15;95634.00;;;9.90
15680;BMP180;15488;48.114;11.532;2023-03-01T07:58:46;95626.00;;;10.00
15680;BMP180;15488;48.114;11.532;2023-03-01T08:01:16;95624.00;;;10.00
15680;BMP180;15488;48.114;11.532;2023-03-01T08:03:44;95629.00;;;10.00
15680;BMP180;15488;48.114;11.532;2023-03-01T08:06:16;95630.00;;;10.00
15680;BMP180;15488;48.114;11.532;2023-03-01T08:08:45;95631.00;;;10.00
15680;BMP180;15488;48.114;11.532;2023-03-01T08:11:14;95629.00;;;10.00
15680;BMP180;15488;48.114;11.532;2023-03-01T08:13:42;95622.00;;;10.00
15680;BMP180;15488;48.114;11.532;2023-03-01T08:16:12;95626.00;;;10.10
15680;BMP180;15488;48.114;11.532;2023-03-01T08:18:41;95627.00;;;10.10
15680;BMP180;15488;48.114;11.532;2023-03-01T08:21:10;95619.00;;;10.10
15680;BMP180;15488;48.114;11.532;2023-03-01T08:23:38;95616.00;;;10.20
15680;BMP180;15488;48.114;11.532;2023-03-01T08:26:10;95616.00;;;10.20
15680;BMP180;15488;48.114;11.532;2023-03-01T08:28:38;95616.00;;;10.20
15680;BMP180;15488;48.114;11.532;2023-03-01T08:31:14;95621.00;;;10.20
15680;BMP180;15488;48.114;11.532;2023-03-01T08:33:41;95626.00;;;10.30
15680;BMP180;15488;48.114;11.532;2023-03-01T08:36:09;95617.00;;;10.30
15680;BMP180;15488;48.114;11.532;2023-03-01T08:38:36;95613.00;;;10.40
15680;BMP180;15488;48.114;11.532;2023-03-01T08:41:04;95612.00;;;10.40
15680;BMP180;15488;48.114;11.532;2023-03-01T08:43:33;95606.00;;;10.40
15680;BMP180;15488;48.114;11.532;2023-03-01T08:46:00;95607.00;;;10.40
15680;BMP180;15488;48.114;11.532;2023-03-01T08:48:28;95605.00;;;10.50
15680;BMP180;15488;48.114;11.532;2023-03-01T08:50:56;95604.00;;;10.60
15680;BMP180;15488;48.114;11.532;2023-03-01T08:53:23;95603.00;;;10.70
15680;BMP180;15488;48.114;11.532;2023-03-01T08:55:51;95600.00;;;10.70
15680;BMP180;15488;48.114;11.532;2023-03-01T08:58:18;95603.00;;;10.70
15680;BMP180;15488;48.114;11.532;2023-03-01T09:00:47;95602.00;;;10.70
15680;BMP180;15488;48.114;11.532;2023-03-01T09:03:14;95605.00;;;10.80
15680;BMP180;15488;48.114;11.532;2023-03-01T09:05:42;95598.00;;;10.80
15680;BMP180;15488;48.114;11.532;2023-03-01T09:08:11;95594.00;;;10.80
15680;BMP180;15488;48.114;11.532;2023-03-01T09:10:39;95596.00;;;10.80
15680;BMP180;15488;48.114;11.532;2023-03-01T09:13:06;95598.00;;;10.90
15680;BMP180;15488;48.114;11.532;2023-03-01T09:15:35;95595.00;;;10.90
15680;BMP180;15488;48.114;11.532;2023-03-01T09:18:05;95601.00;;;10.90
15680;BMP180;15488;48.114;11.532;2023-03-01T09:20:32;95596.00;;;10.90
15680;BMP180;15488;48.114;11.532;2023-03-01T09:23:00;95595.00;;;11.00
15680;BMP180;15488;48.114;11.532;2023-03-01T09:25:28;95589.00;;;11.00
15680;BMP180;15488;48.114;11.532;2023-03-01T09:27:55;95589.00;;;11.00
15680;BMP180;15488;48.114;11.532;2023-03-01T09:30:23;95593.00;;;11.10
15680;BMP180;15488;48.114;11.532;2023-03-01T09:32:51;95591.00;;;11.10
15680;BMP180;15488;48.114;11.532;2023-03-01T09:35:20;95584.00;;;11.10
15680;BMP180;15488;48.114;11.532;2023-03-01T09:37:48;95588.00;;;11.20
15680;BMP180;15488;48.114;11.532;2023-03-01T09:40:18;95519.00;;;11.20
15680;BMP180;15488;48.114;11.532;2023-03-01T09:42:52;95586.00;;;11.20
15680;BMP180;15488;48.114;11.532;2023-03-01T09:45:27;95583.00;;;11.30
15680;BMP180;15488;48.114;11.532;2023-03-01T09:47:57;95578.00;;;11.30
15680;BMP180;15488;48.114;11.532;2023-03-01T09:50:32;95585.00;;;11.40
15680;BMP180;15488;48.114;11.532;2023-03-01T09:53:02;95578.00;;;11.40
15680;BMP180;15488;48.114;11.532;2023-03-01T09:55:34;95593.00;;;11.50
15680;BMP180;15488;48.114;11.532;2023-03-01T09:58:25;95584.00;;;11.50
15680;BMP180;15488;48.114;11.532;2023-03-01T10:00:57;95582.00;;;11.60
15680;BMP180;15488;48.114;11.532;2023-03-01T10:03:28;95587.00;;;11.60
15680;BMP180;15488;48.114;11.532;2023-03-01T10:06:04;95577.00;;;11.60
15680;BMP180;15488;48.114;11.532;2023-03-01T10:08:40;95580.00;;;11.60
15680;BMP180;15488;48.114;11.532;2023-03-01T10:11:21;95579.00;;;11.60
15680;BMP180;15488;48.114;11.532;2023-03-01T10:13:55;95583.00;;;11.70
15680;BMP180;15488;48.114;11.532;2023-03-01T10:16:37;95576.00;;;11.70
15680;BMP180;15488;48.114;11.532;2023-03-01T10:19:08;95574.00;;;11.80
15680;BMP180;15488;48.114;11.532;2023-03-01T10:21:43;95564.00;;;11.80
15680;BMP180;15488;48.114;11.532;2023-03-01T10:24:14;95562.00;;;11.80
15680;BMP180;15488;48.114;11.532;2023-03-01T10:26:52;95564.00;;;11.80
15680;BMP180;15488;48.114;11.532;2023-03-01T10:29:25;95574.00;;;11.90
15680;BMP180;15488;48.114;11.532;2023-03-01T10:31:54;95568.00;;;11.90
15680;BMP180;15488;48.114;11.532;2023-03-01T10:34:31;95562.00;;;11.90
15680;BMP180;15488;48.114;11.532;2023-03-01T10:37:08;95562.00;;;12.00
15680;BMP180;15488;48.114;11.532;2023-03-01T10:39:36;95564.00;;;12.00
15680;BMP180;15488;48.114;11.532;2023-03-01T10:42:09;95568.00;;;12.10
15680;BMP180;15488;48.114;11.532;2023-03-01T10:44:45;95563.00;;;12.20
15680;BMP180;15488;48.114;11.532;2023-03-01T10:47:17;95560.00;;;12.20
15680;BMP180;15488;48.114;11.532;2023-03-01T10:49:57;95551.00;;;12.30
15680;BMP180;15488;48.114;11.532;2023-03-01T10:52:29;95558.00;;;12.30
15680;BMP180;15488;48.114;11.532;2023-03-01T10:54:59;95537.00;;;12.40
15680;BMP180;15488;48.114;11.532;2023-03-01T10:57:38;95537.00;;;12.40
15680;BMP180;15488;48.114;11.532;2023-03-01T11:00:20;95530.00;;;12.50
15680;BMP180;15488;48.114;11.532;2023-03-01T11:02:50;95523.00;;;12.60
15680;BMP180;15488;48.114;11.532;2023-03-01T11:05:24;95517.00;;;12.60
15680;BMP180;15488;48.114;11.532;2023-03-01T11:07:55;95513.00;;;12.80
15680;BMP180;15488;48.114;11.532;2023-03-01T11:10:25;95512.00;;;12.80
15680;BMP180;15488;48.114;11.532;2023-03-01T11:12:53;95504.00;;;12.80
15680;BMP180;15488;48.114;11.532;2023-03-01T11:15:24;95501.00;;;12.90
15680;BMP180;15488;48.114;11.532;2023-03-01T11:17:52;95490.00;;;13.00
15680;BMP180;15488;48.114;11.532;2023-03-01T11:20:27;95488.00;;;13.00
15680;BMP180;15488;48.114;11.532;2023-03-01T11:23:01;95486.00;;;13.10
15680;BMP180;15488;48.114;11.532;2023-03-01T11:25:33;95487.00;;;13.10
15680;BMP180;15488;48.114;11.532;2023-03-01T11:28:04;95477.00;;;13.20
15680;BMP180;15488;48.114;11.532;2023-03-01T11:30:35;95485.00;;;13.20
15680;BMP180;15488;48.114;11.532;2023-03-01T11:33:13;95479.00;;;13.30
15680;BMP180;15488;48.114;11.532;2023-03-01T11:35:49;95475.00;;;13.30
15680;BMP180;15488;48.114;11.532;2023-03-01T11:38:23;95462.00;;;13.30
15680;BMP180;15488;48.114;11.532;2023-03-01T11:40:57;95465.00;;;13.30
15680;BMP180;15488;48.114;11.532;2023-03-01T11:43:35;95462.00;;;13.30
15680;BMP180;15488;48.114;11.532;2023-03-01T11:46:40;95451.00;;;13.40
15680;BMP180;15488;48.114;11.532;2023-03-01T11:49:18;95449.00;;;13.40
15680;BMP180;15488;48.114;11.532;2023-03-01T11:51:55;95450.00;;;13.50
15680;BMP180;15488;48.114;11.532;2023-03-01T11:54:42;95444.00;;;13.60
15680;BMP180;15488;48.114;11.532;2023-03-01T11:57:20;95451.00;;;13.60
15680;BMP180;15488;48.114;11.532;2023-03-01T12:00:17;95443.00;;;13.70
15680;BMP180;15488;48.114;11.532;2023-03-01T12:03:13;95440.00;;;13.80
15680;BMP180;15488;48.114;11.532;2023-03-01T12:06:12;95437.00;;;13.90
15680;BMP180;15488;48.114;11.532;2023-03-01T12:08:44;95433.00;;;14.10
15680;BMP180;15488;48.114;11.532;2023-03-01T12:11:27;95425.00;;;14.20
15680;BMP180;15488;48.114;11.532;2023-03-01T12:17:15;95425.00;;;14.40
15680;BMP180;15488;48.114;11.532;2023-03-01T12:20:03;95414.00;;;14.60
15680;BMP180;15488;48.114;11.532;2023-03-01T12:22:47;95424.00;;;14.70
15680;BMP180;15488;48.114;11.532;2023-03-01T12:25:21;95408.00;;;14.80
15680;BMP180;15488;48.114;11.532;2023-03-01T12:31:01;95406.00;;;15.20
15680;BMP180;15488;48.114;11.532;2023-03-01T12:33:43;95400.00;;;15.30
15680;BMP180;15488;48.114;11.532;2023-03-01T12:36:30;95406.00;;;15.40
15680;BMP180;15488;48.114;11.532;2023-03-01T12:39:12;95405.00;;;15.50
15680;BMP180;15488;48.114;11.532;2023-03-01T12:41:47;95396.00;;;15.60
15680;BMP180;15488;48.114;11.532;2023-03-01T12:44:39;95388.00;;;15.70
15680;BMP180;15488;48.114;11.532;2023-03-01T12:47:19;95389.00;;;15.90
15680;BMP180;15488;48.114;11.532;2023-03-01T12:49:52;95395.00;;;16.30
15680;BMP180;15488;48.114;11.532;2023-03-01T12:52:26;95395.00;;;16.90
15680;BMP180;15488;48.114;11.532;2023-03-01T12:54:57;95395.00;;;17.90
15680;BMP180;15488;48.114;11.532;2023-03-01T12:57:28;95391.00;;;18.90
15680;BMP180;15488;48.114;11.532;2023-03-01T13:00:17;95386.00;;;19.70
15680;BMP180;15488;48.114;11.532;2023-03-01T13:02:52;95391.00;;;20.50
15680;BMP180;15488;48.114;11.532;2023-03-01T13:05:34;95381.00;;;21.40
15680;BMP180;15488;48.114;11.532;2023-03-01T13:08:09;95388.00;;;22.10
15680;BMP180;15488;48.114;11.532;2023-03-01T13:10:43;95385.00;;;22.70
15680;BMP180;15488;48.114;11.532;2023-03-01T13:13:18;95381.00;;;23.30
15680;BMP180;15488;48.114;11.532;2023-03-01T13:15:46;95392.00;;;23.70
15680;BMP180;15488;48.114;11.532;2023-03-01T13:18:32;95382.00;;;24.20
15680;BMP180;15488;48.114;11.532;2023-03-01T13:21:02;95382.00;;;24.50
15680;BMP180;15488;48.114;11.532;2023-03-01T13:23:33;95397.00;;;24.60
15680;BMP180;15488;48.114;11.532;2023-03-01T13:28:56;95390.00;;;24.90
15680;BMP180;15488;48.114;11.532;2023-03-01T13:31:59;95387.00;;;25.00
15680;BMP180;15488;48.114;11.532;2023-03-01T13:34:52;95382.00;;;24.90
15680;BMP180;15488;48.114;11.532;2023-03-01T13:37:22;95384.00;;;24.70
15680;BMP180;15488;48.114;11.532;2023-03-01T13:39:52;95372.00;;;24.60
15680;BMP180;15488;48.114;11.532;2023-03-01T13:42:42;95374.00;;;24.40
15680;BMP180;15488;48.114;11.532;2023-03-01T13:45:32;95374.00;;;24.10
15680;BMP180;15488;48.114;11.532;2023-03-01T13:48:04;95380.00;;;23.80
15680;BMP180;15488;48.114;11.532;2023-03-01T13:50:43;95385.00;;;23.60
15680;BMP180;15488;48.114;11.532;2023-03-01T13:53:16;95382.00;;;23.40
15680;BMP180;15488;48.114;11.532;2023-03-01T13:55:46;95374.00;;;23.20
15680;BMP180;15488;48.114;11.532;2023-03-01T13:58:22;95365.00;;;23.10
15680;BMP180;15488;48.114;11.532;2023-03-01T14:00:57;95356.00;;;22.90
15680;BMP180;15488;48.114;11.532;2023-03-01T14:03:24;95361.00;;;22.80
15680;BMP180;15488;48.114;11.532;2023-03-01T14:06:03;95363.00;;;22.70
15680;BMP180;15488;48.114;11.532;2023-03-01T14:08:34;95367.00;;;22.70
15680;BMP180;15488;48.114;11.532;2023-03-01T14:11:34;95365.00;;;22.80
15680;BMP180;15488;48.114;11.532;2023-03-01T14:14:21;95357.00;;;22.80
15680;BMP180;15488;48.114;11.532;2023-03-01T14:16:58;95354.00;;;22.90
15680;BMP180;15488;48.114;11.532;2023-03-01T14:19:29;95351.00;;;23.00
15680;BMP180;15488;48.114;11.532;2023-03-01T14:22:10;95351.00;;;23.20
15680;BMP180;15488;48.114;11.532;2023-03-01T14:24:43;95352.00;;;23.40
15680;BMP180;15488;48.114;11.532;2023-03-01T14:27:12;95341.00;;;23.60
15680;BMP180;15488;48.114;11.532;2023-03-01T14:29:40;95337.00;;;23.80
15680;BMP180;15488;48.114;11.532;2023-03-01T14:32:15;95330.00;;;24.00
15680;BMP180;15488;48.114;11.532;2023-03-01T14:34:46;95326.00;;;24.40